sensor_id;sensor_type;location;lat;lon;timestamp;temperature;humidity
29571;DHT22;16814;52.118;11.436;2022-10-26T00:00:01;10.30;99.90
29571;DHT22;16814;52.118;11.436;2022-10-26T00:02:27;10.10;99.90
29571;DHT22;16814;52.118;11.436;2022-10-26T00:04:53;10.00;99.90
29571;DHT22;16814;52.118;11.436;2022-10-26T00:07:18;9.70;99.90
29571;DHT22;16814;52.118;11.436;2022-10-26T00:09:44;9.70;99.90
29571;DHT22;16814;52.118;11.436;2022-10-26T00:12:09;10.00;99.90
29571;DHT22;16814;52.118;11.436;2022-10-26T00:14:35;10.00;99.90
29571;DHT22;16814;52.118;11.436;2022-10-26T00:17:00;10.10;99.90
29571;DHT22;16814;52.118;11.436;2022-10-26T00:19:26;10.10;99.90
29571;DHT22;16814;52.118;11.436;2022-10-26T00:21:51;10.00;99.90
29571;DHT22;16814;52.118;11.436;2022-10-26T00:24:17;10.10;99.90
29571;DHT22;16814;52.118;11.436;2022-10-26T00:26:42;10.10;99.90
29571;DHT22;16814;52.118;11.436;2022-10-26T00:29:10;10.20;99.90
29571;DHT22;16814;52.118;11.436;2022-10-26T00:31:35;10.20;99.90
29571;DHT22;16814;52.118;11.436;2022-10-26T00:34:01;10.20;99.90
29571;DHT22;16814;52.118;11.436;2022-10-26T00:36:27;10.00;99.90
29571;DHT22;16814;52.118;11.436;2022-10-26T00:38:53;9.80;99.90
29571;DHT22;16814;52.118;11.436;2022-10-26T00:41:26;9.80;99.90
29571;DHT22;16814;52.118;11.436;2022-10-26T00:43:52;9.60;99.90
29571;DHT22;16814;52.118;11.436;2022-10-26T00:46:24;9.60;99.90
29571;DHT22;16814;52.118;11.436;2022-10-26T00:48:54;9.80;99.90
29571;DHT22;16814;52.118;11.436;2022-10-26T00:51:30;10.10;99.90
29571;DHT22;16814;52.118;11.436;2022-10-26T00:53:58;10.30;99.90
29571;DHT22;16814;52.118;11.436;2022-10-26T00:56:26;10.40;99.90
29571;DHT22;16814;52.118;11.436;2022-10-26T00:58:53;10.30;99.90
29571;DHT22;16814;52.118;11.436;2022-10-26T01:01:20;10.40;99.90
29571;DHT22;16814;52.118;11.436;2022-10-26T01:03:46;10.40;99.90
29571;DHT22;16814;52.118;11.436;2022-10-26T01:06:13;10.30;99.90
29571;DHT22;16814;52.118;11.436;2022-10-26T01:08:41;10.30;99.90
29571;DHT22;16814;52.118;11.436;2022-10-26T01:11:07;10.40;99.90
29571;DHT22;16814;52.118;11.436;2022-10-26T01:13:34;10.50;99.90
29571;DHT22;16814;52.118;11.436;2022-10-26T01:16:20;10.50;99.90
29571;DHT22;16814;52.118;11.436;2022-10-26T01:19:18;10.50;99.90
29571;DHT22;16814;52.118;11.436;2022-10-26T01:22:02;10.40;99.90
29571;DHT22;16814;52.118;11.436;2022-10-26T01:24:57;10.50;99.90
29571;DHT22;16814;52.118;11.436;2022-10-26T01:27:34;10.50;99.90
29571;DHT22;16814;52.118;11.436;2022-10-26T01:30:19;10.40;99.90
29571;DHT22;16814;52.118;11.436;2022-10-26T01:32:54;10.30;99.90
29571;DHT22;16814;52.118;11.436;2022-10-26T01:35:31;10.30;99.90
29571;DHT22;16814;52.118;11.436;2022-10-26T01:38:07;10.40;99.90
29571;DHT22;16814;52.118;11.436;2022-10-26T01:40:42;10.40;99.90
29571;DHT22;16814;52.118;11.436;2022-10-26T01:43:11;10.30;99.90
29571;DHT22;16814;52.118;11.436;2022-10-26T01:45:40;10.50;99.90
29571;DHT22;16814;52.118;11.436;2022-10-26T01:48:09;10.40;99.90
29571;DHT22;16814;52.118;11.436;2022-10-26T01:50:37;10.40;99.90
29571;DHT22;16814;52.118;11.436;2022-10-26T01:53:03;10.30;99.90
29571;DHT22;16814;52.118;11.436;2022-10-26T01:55:46;10.20;99.90
29571;DHT22;16814;52.118;11.436;2022-10-26T01:58:39;10.10;99.90
29571;DHT22;16814;52.118;11.436;2022-10-26T02:03:39;10.00;99.90
29571;DHT22;16814;52.118;11.436;2022-10-26T02:06:21;9.90;99.90
29571;DHT22;16814;52.118;11.436;2022-10-26T02:09:06;9.80;99.90
29571;DHT22;16814;52.118;11.436;2022-10-26T02:11:39;10.00;99.90
29571;DHT22;16814;52.118;11.436;2022-10-26T02:14:17;10.00;99.90
29571;DHT22;16814;52.118;11.436;2022-10-26T02:17:01;9.70;99.90
29571;DHT22;16814;52.118;11.436;2022-10-26T02:19:47;9.60;99.90
29571;DHT22;16814;52.118;11.436;2022-10-26T02:24:45;9.20;99.90
29571;DHT22;16814;52.118;11.436;2022-10-26T02:27:16;9.10;99.90
29571;DHT22;16814;52.118;11.436;2022-10-26T02:29:45;9.10;99.90
29571;DHT22;16814;52.118;11.436;2022-10-26T02:32:12;9.20;99.90
29571;DHT22;16814;52.118;11.436;2022-10-26T02:34:39;9.30;99.90
29571;DHT22;16814;52.118;11.436;2022-10-26T02:37:07;9.50;99.90
29571;DHT22;16814;52.118;11.436;2022-10-26T02:39:34;9.30;99.90
29571;DHT22;16814;52.118;11.436;2022-10-26T02:42:03;9.50;99.90
29571;DHT22;16814;52.118;11.436;2022-10-26T02:44:35;9.40;99.90
29571;DHT22;16814;52.118;11.436;2022-10-26T02:47:01;9.50;99.90
29571;DHT22;16814;52.118;11.436;2022-10-26T02:49:27;9.60;99.90
29571;DHT22;16814;52.118;11.436;2022-10-26T02:52:00;9.60;99.90
29571;DHT22;16814;52.118;11.436;2022-10-26T02:57:46;9.60;99.90
29571;DHT22;16814;52.118;11.436;2022-10-26T03:00:15;9.40;99.90
29571;DHT22;16814;52.118;11.436;2022-10-26T03:02:43;9.20;99.90
29571;DHT22;16814;52.118;11.436;2022-10-26T03:05:15;9.00;99.90
29571;DHT22;16814;52.118;11.436;2022-10-26T03:07:43;9.20;99.90
29571;DHT22;16814;52.118;11.436;2022-10-26T03:10:09;9.30;99.90
29571;DHT22;16814;52.118;11.436;2022-10-26T03:12:34;9.20;99.90
29571;DHT22;16814;52.118;11.436;2022-10-26T03:15:00;9.00;99.90
29571;DHT22;16814;52.118;11.436;2022-10-26T03:17:25;9.00;99.90
29571;DHT22;16814;52.118;11.436;2022-10-26T03:19:51;9.20;99.90
29571;DHT22;16814;52.118;11.436;2022-10-26T03:22:16;9.20;99.90
29571;DHT22;16814;52.118;11.436;2022-10-26T03:24:42;9.30;99.90
29571;DHT22;16814;52.118;11.436;2022-10-26T03:27:07;9.30;99.90
29571;DHT22;16814;52.118;11.436;2022-10-26T03:29:33;9.20;99.90
29571;DHT22;16814;52.118;11.436;2022-10-26T03:31:58;9.20;99.90
29571;DHT22;16814;52.118;11.436;2022-10-26T03:34:24;9.20;99.90
29571;DHT22;16814;52.118;11.436;2022-10-26T03:36:49;9.30;99.90
29571;DHT22;16814;52.118;11.436;2022-10-26T03:39:15;9.20;99.90
29571;DHT22;16814;52.118;11.436;2022-10-26T03:41:40;9.20;99.90
29571;DHT22;16814;52.118;11.436;2022-10-26T03:44:06;9.10;99.90
29571;DHT22;16814;52.118;11.436;2022-10-26T03:46:31;9.10;99.90
29571;DHT22;16814;52.118;11.436;2022-10-26T03:48:57;9.10;99.90
29571;DHT22;16814;52.118;11.436;2022-10-26T03:51:22;9.10;99.90
29571;DHT22;16814;52.118;11.436;2022-10-26T03:53:48;9.30;99.90
29571;DHT22;16814;52.118;11.436;2022-10-26T03:56:13;9.40;99.90
29571;DHT22;16814;52.118;11.436;2022-10-26T03:58:39;9.40;99.90
29571;DHT22;16814;52.118;11.436;2022-10-26T04:01:04;9.40;99.90
29571;DHT22;16814;52.118;11.436;2022-10-26T04:03:30;9.10;99.90
29571;DHT22;16814;52.118;11.436;2022-10-26T04:05:55;9.30;99.90
29571;DHT22;16814;52.118;11.436;2022-10-26T04:08:24;9.20;99.90
29571;DHT22;16814;52.118;11.436;2022-10-26T04:10:49;9.00;99.90
29571;DHT22;16814;52.118;11.436;2022-10-26T04:13:14;8.60;99.90
29571;DHT22;16814;52.118;11.436;2022-10-26T04:15:40;8.10;99.90
29571;DHT22;16814;52.118;11.436;2022-10-26T04:18:06;7.80;99.90
29571;DHT22;16814;52.118;11.436;2022-10-26T04:20:32;7.80;99.90
29571;DHT22;16814;52.118;11.436;2022-10-26T04:23:04;7.70;99.90
29571;DHT22;16814;52.118;11.436;2022-10-26T04:25:31;7.60;99.90
29571;DHT22;16814;52.118;11.436;2022-10-26T04:27:58;7.50;99.90
29571;DHT22;16814;52.118;11.436;2022-10-26T04:30:24;7.40;99.90
29571;DHT22;16814;52.118;11.436;2022-10-26T04:32:50;7.40;99.90
29571;DHT22;16814;52.118;11.436;2022-10-26T04:35:16;7.40;99.90
29571;DHT22;16814;52.118;11.436;2022-10-26T04:37:41;7.30;99.90
29571;DHT22;16814;52.118;11.436;2022-10-26T04:40:07;7.30;99.90
29571;DHT22;16814;52.118;11.436;2022-10-26T04:42:43;7.30;99.90
29571;DHT22;16814;52.118;11.436;2022-10-26T04:45:09;7.30;99.90
29571;DHT22;16814;52.118;11.436;2022-10-26T04:47:35;7.10;99.90
29571;DHT22;16814;52.118;11.436;2022-10-26T04:50:00;7.00;99.90
29571;DHT22;16814;52.118;11.436;2022-10-26T04:52:26;6.90;99.90
29571;DHT22;16814;52.118;11.436;2022-10-26T04:54:51;7.20;99.90
29571;DHT22;16814;52.118;11.436;2022-10-26T04:57:20;7.50;99.90
29571;DHT22;16814;52.118;11.436;2022-10-26T04:59:46;7.70;99.90
29571;DHT22;16814;52.118;11.436;2022-10-26T05:02:11;7.70;99.90
29571;DHT22;16814;52.118;11.436;2022-10-26T05:04:37;7.90;99.90
29571;DHT22;16814;52.118;11.436;2022-10-26T05:07:02;8.00;99.90
29571;DHT22;16814;52.118;11.436;2022-10-26T05:09:28;8.10;99.90
29571;DHT22;16814;52.118;11.436;2022-10-26T05:11:53;8.40;99.90
29571;DHT22;16814;52.118;11.436;2022-10-26T05:14:18;8.40;99.90
29571;DHT22;16814;52.118;11.436;2022-10-26T05:16:44;8.30;99.90
29571;DHT22;16814;52.118;11.436;2022-10-26T05:19:10;8.30;99.90
29571;DHT22;16814;52.118;11.436;2022-10-26T05:21:35;8.30;99.90
29571;DHT22;16814;52.118;11.436;2022-10-26T05:24:01;8.20;99.90
29571;DHT22;16814;52.118;11.436;2022-10-26T05:26:27;8.20;99.90
29571;DHT22;16814;52.118;11.436;2022-10-26T05:28:52;8.00;99.90
29571;DHT22;16814;52.118;11.436;2022-10-26T05:31:18;7.80;99.90
29571;DHT22;16814;52.118;11.436;2022-10-26T05:33:48;7.80;99.90
29571;DHT22;16814;52.118;11.436;2022-10-26T05:36:15;7.70;99.90
29571;DHT22;16814;52.118;11.436;2022-10-26T05:38:41;7.70;99.90
29571;DHT22;16814;52.118;11.436;2022-10-26T05:41:06;7.90;99.90
29571;DHT22;16814;52.118;11.436;2022-10-26T05:43:32;8.00;99.90
29571;DHT22;16814;52.118;11.436;2022-10-26T05:45:57;7.90;99.90
29571;DHT22;16814;52.118;11.436;2022-10-26T05:48:23;8.10;99.90
29571;DHT22;16814;52.118;11.436;2022-10-26T05:50:48;8.20;99.90
29571;DHT22;16814;52.118;11.436;2022-10-26T05:53:15;8.30;99.90
29571;DHT22;16814;52.118;11.436;2022-10-26T05:55:41;8.30;99.90
29571;DHT22;16814;52.118;11.436;2022-10-26T05:58:12;8.30;99.90
29571;DHT22;16814;52.118;11.436;2022-10-26T06:00:51;8.20;99.90
29571;DHT22;16814;52.118;11.436;2022-10-26T06:03:53;8.10;99.90
29571;DHT22;16814;52.118;11.436;2022-10-26T06:06:21;8.10;99.90
29571;DHT22;16814;52.118;11.436;2022-10-26T06:08:47;8.10;99.90
29571;DHT22;16814;52.118;11.436;2022-10-26T06:11:12;7.80;99.90
29571;DHT22;16814;52.118;11.436;2022-10-26T06:13:38;7.60;99.90
29571;DHT22;16814;52.118;11.436;2022-10-26T06:18:48;7.30;99.90
29571;DHT22;16814;52.118;11.436;2022-10-26T06:21:54;7.40;99.90
29571;DHT22;16814;52.118;11.436;2022-10-26T06:24:42;7.40;99.90
29571;DHT22;16814;52.118;11.436;2022-10-26T06:30:05;7.60;99.90
29571;DHT22;16814;52.118;11.436;2022-10-26T06:32:31;7.70;99.90
29571;DHT22;16814;52.118;11.436;2022-10-26T06:37:48;7.80;99.90
29571;DHT22;16814;52.118;11.436;2022-10-26T06:40:15;8.00;99.90
29571;DHT22;16814;52.118;11.436;2022-10-26T06:42:41;7.80;99.90
29571;DHT22;16814;52.118;11.436;2022-10-26T06:45:11;7.70;99.90
29571;DHT22;16814;52.118;11.436;2022-10-26T06:47:57;7.60;99.90
29571;DHT22;16814;52.118;11.436;2022-10-26T06:53:26;7.50;99.90
29571;DHT22;16814;52.118;11.436;2022-10-26T06:55:54;7.60;99.90
29571;DHT22;16814;52.118;11.436;2022-10-26T06:58:23;7.90;99.90
29571;DHT22;16814;52.118;11.436;2022-10-26T07:00:52;8.10;99.90
29571;DHT22;16814;52.118;11.436;2022-10-26T07:03:18;8.30;99.90
29571;DHT22;16814;52.118;11.436;2022-10-26T07:05:43;8.60;99.90
29571;DHT22;16814;52.118;11.436;2022-10-26T07:08:09;8.60;99.90
29571;DHT22;16814;52.118;11.436;2022-10-26T07:10:35;8.60;99.90
29571;DHT22;16814;52.118;11.436;2022-10-26T07:13:06;8.70;99.90
29571;DHT22;16814;52.118;11.436;2022-10-26T07:15:33;8.80;99.90
29571;DHT22;16814;52.118;11.436;2022-10-26T07:17:59;8.90;99.90
29571;DHT22;16814;52.118;11.436;2022-10-26T07:20:24;9.00;99.90
29571;DHT22;16814;52.118;11.436;2022-10-26T07:22:54;8.80;99.90
29571;DHT22;16814;52.118;11.436;2022-10-26T07:25:21;8.90;99.90
29571;DHT22;16814;52.118;11.436;2022-10-26T07:27:46;9.00;99.90
29571;DHT22;16814;52.118;11.436;2022-10-26T07:30:12;9.10;99.90
29571;DHT22;16814;52.118;11.436;2022-10-26T07:32:38;9.40;99.90
29571;DHT22;16814;52.118;11.436;2022-10-26T07:35:04;9.70;99.90
29571;DHT22;16814;52.118;11.436;2022-10-26T07:37:29;9.90;99.90
29571;DHT22;16814;52.118;11.436;2022-10-26T07:39:55;10.10;99.90
29571;DHT22;16814;52.118;11.436;2022-10-26T07:42:20;10.00;99.90
29571;DHT22;16814;52.118;11.436;2022-10-26T07:44:46;10.10;99.90
29571;DHT22;16814;52.118;11.436;2022-10-26T07:47:11;10.10;99.90
29571;DHT22;16814;52.118;11.436;2022-10-26T07:49:37;10.40;99.90
29571;DHT22;16814;52.118;11.436;2022-10-26T07:54:54;10.50;99.90
29571;DHT22;16814;52.118;11.436;2022-10-26T07:57:19;10.50;99.90
29571;DHT22;16814;52.118;11.436;2022-10-26T07:59:45;10.50;99.90
29571;DHT22;16814;52.118;11.436;2022-10-26T08:02:10;10.50;99.90
29571;DHT22;16814;52.118;11.436;2022-10-26T08:04:36;10.70;99.90
29571;DHT22;16814;52.118;11.436;2022-10-26T08:07:01;10.70;99.90
29571;DHT22;16814;52.118;11.436;2022-10-26T08:09:27;10.70;99.90
29571;DHT22;16814;52.118;11.436;2022-10-26T08:11:52;10.60;99.90
29571;DHT22;16814;52.118;11.436;2022-10-26T08:14:18;10.80;99.90
29571;DHT22;16814;52.118;11.436;2022-10-26T08:16:43;10.90;99.90
29571;DHT22;16814;52.118;11.436;2022-10-26T08:19:09;11.10;99.90
29571;DHT22;16814;52.118;11.436;2022-10-26T08:21:34;11.10;99.90
29571;DHT22;16814;52.118;11.436;2022-10-26T08:24:00;11.20;99.90
29571;DHT22;16814;52.118;11.436;2022-10-26T08:26:26;11.30;99.90
29571;DHT22;16814;52.118;11.436;2022-10-26T08:28:51;11.40;99.90
29571;DHT22;16814;52.118;11.436;2022-10-26T08:31:17;11.60;99.90
29571;DHT22;16814;52.118;11.436;2022-10-26T08:33:42;11.50;99.90
29571;DHT22;16814;52.118;11.436;2022-10-26T08:36:08;11.70;99.90
29571;DHT22;16814;52.118;11.436;2022-10-26T08:38:33;11.80;99.90
29571;DHT22;16814;52.118;11.436;2022-10-26T08:41:07;11.90;99.90
29571;DHT22;16814;52.118;11.436;2022-10-26T08:43:39;12.00;99.90
29571;DHT22;16814;52.118;11.436;2022-10-26T08:46:12;12.20;99.90
29571;DHT22;16814;52.118;11.436;2022-10-26T08:48:43;12.30;99.90
29571;DHT22;16814;52.118;11.436;2022-10-26T08:51:15;12.40;99.90
29571;DHT22;16814;52.118;11.436;2022-10-26T08:56:21;12.70;99.90
29571;DHT22;16814;52.118;11.436;2022-10-26T08:58:55;13.00;99.90
29571;DHT22;16814;52.118;11.436;2022-10-26T09:01:21;13.20;99.90
29571;DHT22;16814;52.118;11.436;2022-10-26T09:03:47;13.40;99.90
29571;DHT22;16814;52.118;11.436;2022-10-26T09:06:35;13.50;99.90
29571;DHT22;16814;52.118;11.436;2022-10-26T09:09:10;13.60;99.90
29571;DHT22;16814;52.118;11.436;2022-10-26T09:14:35;14.00;99.90
29571;DHT22;16814;52.118;11.436;2022-10-26T09:17:20;14.20;99.90
29571;DHT22;16814;52.118;11.436;2022-10-26T09:20:09;14.50;99.90
29571;DHT22;16814;52.118;11.436;2022-10-26T09:22:40;14.70;99.90
29571;DHT22;16814;52.118;11.436;2022-10-26T09:25:22;14.80;99.90
29571;DHT22;16814;52.118;11.436;2022-10-26T09:27:50;15.00;99.90
29571;DHT22;16814;52.118;11.436;2022-10-26T09:30:20;15.10;99.90
29571;DHT22;16814;52.118;11.436;2022-10-26T09:32:57;15.30;99.90
29571;DHT22;16814;52.118;11.436;2022-10-26T09:35:48;15.30;99.90
29571;DHT22;16814;52.118;11.436;2022-10-26T09:38:22;15.30;99.90
29571;DHT22;16814;52.118;11.436;2022-10-26T09:43:42;15.60;99.90
29571;DHT22;16814;52.118;11.436;2022-10-26T09:46:17;15.70;99.90
29571;DHT22;16814;52.118;11.436;2022-10-26T09:48:50;15.70;99.90
29571;DHT22;16814;52.118;11.436;2022-10-26T09:51:18;16.20;99.90
29571;DHT22;16814;52.118;11.436;2022-10-26T09:53:43;16.40;99.90
29571;DHT22;16814;52.118;11.436;2022-10-26T09:56:13;16.70;99.90
29571;DHT22;16814;52.118;11.436;2022-10-26T09:58:59;16.90;99.90
29571;DHT22;16814;52.118;11.436;2022-10-26T10:06:41;17.00;99.90
29571;DHT22;16814;52.118;11.436;2022-10-26T10:09:12;16.50;99.90
29571;DHT22;16814;52.118;11.436;2022-10-26T10:11:54;16.10;99.90
29571;DHT22;16814;52.118;11.436;2022-10-26T10:14:36;15.80;99.90
29571;DHT22;16814;52.118;11.436;2022-10-26T10:17:19;15.60;99.90
29571;DHT22;16814;52.118;11.436;2022-10-26T10:19:45;15.40;99.90
29571;DHT22;16814;52.118;11.436;2022-10-26T10:22:18;15.30;99.90
29571;DHT22;16814;52.118;11.436;2022-10-26T10:24:55;15.20;99.90
29571;DHT22;16814;52.118;11.436;2022-10-26T10:27:21;15.30;99.90
29571;DHT22;16814;52.118;11.436;2022-10-26T10:29:57;15.60;99.90
29571;DHT22;16814;52.118;11.436;2022-10-26T10:32:28;16.00;99.90
29571;DHT22;16814;52.118;11.436;2022-10-26T10:34:59;16.50;99.90
29571;DHT22;16814;52.118;11.436;2022-10-26T10:40:01;16.60;99.90
29571;DHT22;16814;52.118;11.436;2022-10-26T10:42:30;16.60;99.90
29571;DHT22;16814;52.118;11.436;2022-10-26T10:44:57;16.40;99.90
29571;DHT22;16814;52.118;11.436;2022-10-26T10:47:27;16.20;99.90
29571;DHT22;16814;52.118;11.436;2022-10-26T10:50:15;16.10;99.90
29571;DHT22;16814;52.118;11.436;2022-10-26T10:52:41;15.90;99.90
29571;DHT22;16814;52.118;11.436;2022-10-26T10:58:06;16.00;99.90
29571;DHT22;16814;52.118;11.436;2022-10-26T11:00:36;16.40;99.90
29571;DHT22;16814;52.118;11.436;2022-10-26T11:06:04;16.30;99.90
29571;DHT22;16814;52.118;11.436;2022-10-26T11:08:43;16.30;99.90
29571;DHT22;16814;52.118;11.436;2022-10-26T11:11:15;16.30;99.90
29571;DHT22;16814;52.118;11.436;2022-10-26T11:16:25;16.10;99.90
29571;DHT22;16814;52.118;11.436;2022-10-26T11:19:17;16.20;99.90
29571;DHT22;16814;52.118;11.436;2022-10-26T11:21:47;16.10;99.90
29571;DHT22;16814;52.118;11.436;2022-10-26T11:32:13;16.40;99.90
29571;DHT22;16814;52.118;11.436;2022-10-26T11:35:10;16.30;99.90
29571;DHT22;16814;52.118;11.436;2022-10-26T11:37:55;16.50;99.90
29571;DHT22;16814;52.118;11.436;2022-10-26T11:40:44;16.70;99.90
29571;DHT22;16814;52.118;11.436;2022-10-26T11:43:29;16.90;99.90
29571;DHT22;16814;52.118;11.436;2022-10-26T11:46:20;16.90;99.90
29571;DHT22;16814;52.118;11.436;2022-10-26T11:48:54;17.00;99.90
29571;DHT22;16814;52.118;11.436;2022-10-26T11:54:14;16.90;99.90
29571;DHT22;16814;52.118;11.436;2022-10-26T11:56:45;17.10;99.90
29571;DHT22;16814;52.118;11.436;2022-10-26T11:59:24;16.80;99.90
29571;DHT22;16814;52.118;11.436;2022-10-26T12:01:53;16.70;99.90
29571;DHT22;16814;52.118;11.436;2022-10-26T12:04:21;16.60;99.90
29571;DHT22;16814;52.118;11.436;2022-10-26T12:06:48;16.40;99.90
29571;DHT22;16814;52.118;11.436;2022-10-26T12:09:19;16.60;99.90
29571;DHT22;16814;52.118;11.436;2022-10-26T12:12:00;16.70;99.90
29571;DHT22;16814;52.118;11.436;2022-10-26T12:17:51;16.70;99.90
29571;DHT22;16814;52.118;11.436;2022-10-26T12:20:59;16.80;99.90
29571;DHT22;16814;52.118;11.436;2022-10-26T12:23:35;16.80;99.90
29571;DHT22;16814;52.118;11.436;2022-10-26T12:34:09;16.80;99.90
29571;DHT22;16814;52.118;11.436;2022-10-26T12:39:33;16.80;99.90
29571;DHT22;16814;52.118;11.436;2022-10-26T12:55:15;16.70;99.90
29571;DHT22;16814;52.118;11.436;2022-10-26T13:03:43;16.70;99.90
29571;DHT22;16814;52.118;11.436;2022-10-26T13:09:19;16.70;99.90
29571;DHT22;16814;52.118;11.436;2022-10-26T13:11:47;16.70;99.90
29571;DHT22;16814;52.118;11.436;2022-10-26T13:14:34;16.60;99.90
29571;DHT22;16814;52.118;11.436;2022-10-26T13:17:03;16.60;99.90
29571;DHT22;16814;52.118;11.436;2022-10-26T13:19:42;16.50;99.90
29571;DHT22;16814;52.118;11.436;2022-10-26T13:22:18;16.70;99.90
29571;DHT22;16814;52.118;11.436;2022-10-26T13:24:51;16.70;99.90
29571;DHT22;16814;52.118;11.436;2022-10-26T13:32:28;17.00;99.90
29571;DHT22;16814;52.118;11.436;2022-10-26T13:34:56;16.90;99.90
29571;DHT22;16814;52.118;11.436;2022-10-26T13:37:27;16.80;99.90
29571;DHT22;16814;52.118;11.436;2022-10-26T13:39:54;16.70;99.90
29571;DHT22;16814;52.118;11.436;2022-10-26T13:42:24;16.60;99.90
29571;DHT22;16814;52.118;11.436;2022-10-26T13:44:57;16.80;99.90
29571;DHT22;16814;52.118;11.436;2022-10-26T13:47:39;16.60;99.90
29571;DHT22;16814;52.118;11.436;2022-10-26T13:50:10;16.60;99.90
29571;DHT22;16814;52.118;11.436;2022-10-26T13:52:44;16.70;99.90
29571;DHT22;16814;52.118;11.436;2022-10-26T13:55:23;16.60;99.90
29571;DHT22;16814;52.118;11.436;2022-10-26T13:58:07;16.60;99.90
29571;DHT22;16814;52.118;11.436;2022-10-26T14:00:34;16.30;99.90
29571;DHT22;16814;52.118;11.436;2022-10-26T14:03:10;16.40;99.90
29571;DHT22;16814;52.118;11.436;2022-10-26T14:05:41;16.30;99.90
29571;DHT22;16814;52.118;11.436;2022-10-26T14:08:14;16.50;99.90
29571;DHT22;16814;52.118;11.436;2022-10-26T14:10:46;16.40;99.90
29571;DHT22;16814;52.118;11.436;2022-10-26T14:13:15;16.30;99.90
29571;DHT22;16814;52.118;11.436;2022-10-26T14:15:43;16.20;99.90
29571;DHT22;16814;52.118;11.436;2022-10-26T14:18:26;16.10;99.90
29571;DHT22;16814;52.118;11.436;2022-10-26T14:21:04;16.10;99.90
29571;DHT22;16814;52.118;11.436;2022-10-26T14:23:57;16.10;99.90
29571;DHT22;16814;52.118;11.436;2022-10-26T14:28:57;16.20;99.90
29571;DHT22;16814;52.118;11.436;2022-10-26T14:31:26;16.30;99.90
29571;DHT22;16814;52.118;11.436;2022-10-26T14:33:55;16.30;99.90
29571;DHT22;16814;52.118;11.436;2022-10-26T14:36:32;16.20;99.90
29571;DHT22;16814;52.118;11.436;2022-10-26T14:42:14;16.20;99.90
29571;DHT22;16814;52.118;11.436;2022-10-26T14:44:52;16.10;99.90
29571;DHT22;16814;52.118;11.436;2022-10-26T14:49:50;16.10;99.90
29571;DHT22;16814;52.118;11.436;2022-10-26T14:52:21;16.10;99.90
29571;DHT22;16814;52.118;11.436;2022-10-26T14:55:11;15.90;99.90
29571;DHT22;16814;52.118;11.436;2022-10-26T14:57:39;15.90;99.90
29571;DHT22;16814;52.118;11.436;2022-10-26T15:00:20;15.80;99.90
29571;DHT22;16814;52.118;11.436;2022-10-26T15:02:47;15.70;99.90
29571;DHT22;16814;52.118;11.436;2022-10-26T15:05:26;15.90;99.90
29571;DHT22;16814;52.118;11.436;2022-10-26T15:07:57;15.80;99.90
29571;DHT22;16814;52.118;11.436;2022-10-26T15:13:15;15.70;99.90
29571;DHT22;16814;52.118;11.436;2022-10-26T15:15:42;15.60;99.90
29571;DHT22;16814;52.118;11.436;2022-10-26T15:18:20;15.70;99.90
29571;DHT22;16814;52.118;11.436;2022-10-26T15:20:47;15.80;99.90
29571;DHT22;16814;52.118;11.436;2022-10-26T15:23:13;15.70;99.90
29571;DHT22;16814;52.118;11.436;2022-10-26T15:25:55;15.60;99.90
29571;DHT22;16814;52.118;11.436;2022-10-26T15:28:30;15.30;99.90
29571;DHT22;16814;52.118;11.436;2022-10-26T15:33:30;15.10;99.90
29571;DHT22;16814;52.118;11.436;2022-10-26T15:38:35;15.00;99.90
29571;DHT22;16814;52.118;11.436;2022-10-26T15:41:03;14.90;99.90
29571;DHT22;16814;52.118;11.436;2022-10-26T15:43:29;14.90;99.90
29571;DHT22;16814;52.118;11.436;2022-10-26T15:45:55;14.80;99.90
29571;DHT22;16814;52.118;11.436;2022-10-26T15:48:30;14.70;99.90
29571;DHT22;16814;52.118;11.436;2022-10-26T15:50:56;14.90;99.90
29571;DHT22;16814;52.118;11.436;2022-10-26T15:53:30;14.70;99.90
29571;DHT22;16814;52.118;11.436;2022-10-26T15:55:58;14.60;99.90
29571;DHT22;16814;52.118;11.436;2022-10-26T15:58:25;14.60;99.90
29571;DHT22;16814;52.118;11.436;2022-10-26T16:00:51;14.50;99.90
29571;DHT22;16814;52.118;11.436;2022-10-26T16:03:22;14.30;99.90
29571;DHT22;16814;52.118;11.436;2022-10-26T16:05:55;14.20;99.90
29571;DHT22;16814;52.118;11.436;2022-10-26T16:08:22;14.10;99.90
29571;DHT22;16814;52.118;11.436;2022-10-26T16:10:48;14.00;99.90
29571;DHT22;16814;52.118;11.436;2022-10-26T16:13:15;14.10;99.90
29571;DHT22;16814;52.118;11.436;2022-10-26T16:15:41;13.80;99.90
29571;DHT22;16814;52.118;11.436;2022-10-26T16:18:07;13.60;99.90
29571;DHT22;16814;52.118;11.436;2022-10-26T16:20:33;13.60;99.90
29571;DHT22;16814;52.118;11.436;2022-10-26T16:22:59;13.60;99.90
29571;DHT22;16814;52.118;11.436;2022-10-26T16:25:34;13.60;99.90
29571;DHT22;16814;52.118;11.436;2022-10-26T16:28:03;13.60;99.90
29571;DHT22;16814;52.118;11.436;2022-10-26T16:30:29;13.80;99.90
29571;DHT22;16814;52.118;11.436;2022-10-26T16:32:55;13.70;99.90
29571;DHT22;16814;52.118;11.436;2022-10-26T16:35:20;13.70;99.90
29571;DHT22;16814;52.118;11.436;2022-10-26T16:37:46;13.60;99.90
29571;DHT22;16814;52.118;11.436;2022-10-26T16:40:12;13.50;99.90
29571;DHT22;16814;52.118;11.436;2022-10-26T16:42:37;13.40;99.90
29571;DHT22;16814;52.118;11.436;2022-10-26T16:45:11;13.30;99.90
29571;DHT22;16814;52.118;11.436;2022-10-26T16:47:37;13.30;99.90
29571;DHT22;16814;52.118;11.436;2022-10-26T16:50:05;13.40;99.90
29571;DHT22;16814;52.118;11.436;2022-10-26T16:52:32;13.40;99.90
29571;DHT22;16814;52.118;11.436;2022-10-26T16:54:58;13.20;99.90
29571;DHT22;16814;52.118;11.436;2022-10-26T16:57:24;13.40;99.90
29571;DHT22;16814;52.118;11.436;2022-10-26T16:59:49;13.30;99.90
29571;DHT22;16814;52.118;11.436;2022-10-26T17:02:15;13.20;99.90
29571;DHT22;16814;52.118;11.436;2022-10-26T17:04:40;13.20;99.90
29571;DHT22;16814;52.118;11.436;2022-10-26T17:07:06;13.20;99.90
29571;DHT22;16814;52.118;11.436;2022-10-26T17:09:31;13.40;99.90
29571;DHT22;16814;52.118;11.436;2022-10-26T17:11:57;13.40;99.90
29571;DHT22;16814;52.118;11.436;2022-10-26T17:14:22;13.40;99.90
29571;DHT22;16814;52.118;11.436;2022-10-26T17:16:48;13.50;99.90
29571;DHT22;16814;52.118;11.436;2022-10-26T17:19:16;13.40;99.90
29571;DHT22;16814;52.118;11.436;2022-10-26T17:21:42;13.20;99.90
29571;DHT22;16814;52.118;11.436;2022-10-26T17:24:09;13.00;99.90
29571;DHT22;16814;52.118;11.436;2022-10-26T17:26:35;12.90;99.90
29571;DHT22;16814;52.118;11.436;2022-10-26T17:29:01;12.80;99.90
29571;DHT22;16814;52.118;11.436;2022-10-26T17:31:26;12.60;99.90
29571;DHT22;16814;52.118;11.436;2022-10-26T17:33:52;12.70;99.90